Time;durP1;ratioP1;P1;durP2;ratioP2;P2;SDS_P1;SDS_P2;PMS_P1;PMS_P2;Temp;Humidity;BMP_temperature;BMP_pressure;BME280_temperature;BME280_humidity;BME280_pressure;Samples;Min_cycle;Max_cycle;Signal;HPM_P1;HPM_P2
2021/03/05 00:05:45;;;;;;;5.20;4.68;;;;;;;;;;4678820;28;20113;-55
2021/03/05 00:08:24;;;;;;;6.00;4.45;;;;;;;;;;4142464;34;20114;-50
2021/03/05 00:10:53;;;;;;;5.87;4.43;;;;;;;;;;4124742;34;20115;-50
2021/03/05 00:13:23;;;;;;;6.60;4.72;;;;;;;;;;4128998;34;20099;-56
2021/03/05 00:15:52;;;;;;;5.72;5.12;;;;;;;;;;4130416;34;20187;-49
2021/03/05 00:18:20;;;;;;;5.57;4.55;;;;;;;;;;4130773;34;20142;-54
2021/03/05 00:20:53;;;;;;;5.78;4.55;;;;;;;;;;4130371;34;20103;-55
2021/03/05 00:23:20;;;;;;;5.93;4.68;;;;;;;;;;4119444;34;20134;-52
2021/03/05 00:25:48;;;;;;;6.50;4.55;;;;;;;;;;4141018;34;20134;-51
2021/03/05 00:28:15;;;;;;;6.68;4.87;;;;;;;;;;4130092;34;20130;-50
2021/03/05 00:30:41;;;;;;;5.40;4.30;;;;;;;;;;4129995;34;20099;-53
2021/03/05 00:33:07;;;;;;;6.45;4.97;;;;;;;;;;4130193;34;20119;-51
2021/03/05 00:35:34;;;;;;;6.00;4.80;;;;;;;;;;4129948;34;20447;-53
2021/03/05 00:38:00;;;;;;;5.80;4.97;;;;;;;;;;4129948;34;20115;-52
2021/03/05 00:40:26;;;;;;;6.25;4.85;;;;;;;;;;4152459;34;20109;-50
2021/03/05 00:42:52;;;;;;;7.47;5.25;;;;;;;;;;4130085;34;20095;-55
2021/03/05 00:45:20;;;;;;;5.97;4.82;;;;;;;;;;4141309;34;20501;-52
2021/03/05 00:47:46;;;;;;;5.78;5.00;;;;;;;;;;4152013;34;20182;-49
2021/03/05 00:50:14;;;;;;;8.40;5.93;;;;;;;;;;4140732;34;20106;-56
2021/03/05 00:52:40;;;;;;;8.38;4.90;;;;;;;;;;4152385;34;20532;-51
2021/03/05 00:55:07;;;;;;;6.28;5.18;;;;;;;;;;4151955;34;20138;-56
2021/03/05 00:57:33;;;;;;;5.32;4.72;;;;;;;;;;4164721;34;20443;-49
2021/03/05 00:59:59;;;;;;;5.85;4.87;;;;;;;;;;4164534;34;20559;-50
2021/03/05 01:02:26;;;;;;;8.43;5.72;;;;;;;;;;4152103;34;20131;-48
2021/03/05 01:04:52;;;;;;;9.18;5.93;;;;;;;;;;4164680;34;20145;-52
2021/03/05 01:07:18;;;;;;;6.50;5.05;;;;;;;;;;4164545;34;20107;-52
2021/03/05 01:09:44;;;;;;;6.28;5.28;;;;;;;;;;4152063;34;20114;-48
2021/03/05 01:12:10;;;;;;;6.35;5.62;;;;;;;;;;4140784;34;20142;-51
2021/03/05 01:14:37;;;;;;;5.82;5.32;;;;;;;;;;4164711;34;20514;-52
2021/03/05 01:17:03;;;;;;;8.85;5.78;;;;;;;;;;4140678;34;20198;-53
2021/03/05 01:19:29;;;;;;;6.68;5.37;;;;;;;;;;4129791;34;20098;-49
2021/03/05 01:21:55;;;;;;;8.43;5.70;;;;;;;;;;4140879;34;20099;-50
2021/03/05 01:24:21;;;;;;;6.68;5.47;;;;;;;;;;4164225;34;20141;-53
2021/03/05 01:26:47;;;;;;;8.05;5.87;;;;;;;;;;4129665;34;20136;-50
2021/03/05 01:29:13;;;;;;;7.12;5.90;;;;;;;;;;4151748;34;20123;-57
2021/03/05 01:31:39;;;;;;;6.90;5.62;;;;;;;;;;4140560;34;20522;-51
2021/03/05 01:34:06;;;;;;;8.20;5.93;;;;;;;;;;4140578;34;20104;-53
2021/03/05 01:36:32;;;;;;;5.78;4.95;;;;;;;;;;4151611;34;20194;-53
2021/03/05 01:38:57;;;;;;;7.32;5.90;;;;;;;;;;4164354;34;20109;-53
2021/03/05 01:41:23;;;;;;;8.50;6.25;;;;;;;;;;4164355;34;20123;-51
2021/03/05 01:43:49;;;;;;;8.13;6.00;;;;;;;;;;4164356;34;20200;-52
2021/03/05 01:46:17;;;;;;;6.45;5.22;;;;;;;;;;4151775;34;20109;-50
2021/03/05 01:48:43;;;;;;;8.80;5.55;;;;;;;;;;4140468;34;20142;-52
2021/03/05 01:51:20;;;;;;;6.18;5.60;;;;;;;;;;4151738;34;20111;-53
2021/03/05 01:53:47;;;;;;;7.53;5.78;;;;;;;;;;4151569;34;20447;-52
2021/03/05 01:56:33;;;;;;;6.97;6.03;;;;;;;;;;4118099;34;20181;-56
2021/03/05 01:58:59;;;;;;;10.38;6.28;;;;;;;;;;4140405;34;20119;-54
2021/03/05 02:01:26;;;;;;;6.82;5.40;;;;;;;;;;4129455;34;20122;-52
2021/03/05 02:03:53;;;;;;;7.43;5.93;;;;;;;;;;4140541;34;20226;-54
2021/03/05 02:06:19;;;;;;;6.50;5.85;;;;;;;;;;4140449;34;20173;-50
2021/03/05 02:08:45;;;;;;;7.60;5.60;;;;;;;;;;4151768;34;20511;-51
2021/03/05 02:11:12;;;;;;;7.40;6.15;;;;;;;;;;4164130;34;20111;-49
2021/03/05 02:13:38;;;;;;;8.52;6.57;;;;;;;;;;4140125;34;20131;-51
2021/03/05 02:16:20;;;;;;;9.32;5.62;;;;;;;;;;4164277;34;20134;-54
2021/03/05 02:18:55;;;;;;;8.88;6.70;;;;;;;;;;4130023;34;20111;-56
2021/03/05 02:21:52;;;;;;;7.13;6.27;;;;;;;;;;4140732;34;20542;-56
2021/03/05 02:24:37;;;;;;;8.32;6.03;;;;;;;;;;4151273;34;20234;-50
2021/03/05 02:27:47;;;;;;;7.40;5.63;;;;;;;;;;4128900;34;20119;-51
2021/03/05 02:30:19;;;;;;;9.35;5.93;;;;;;;;;;4157939;34;20129;-55
2021/03/05 02:33:04;;;;;;;9.35;6.10;;;;;;;;;;4140021;34;20144;-54
2021/03/05 02:35:31;;;;;;;7.97;5.78;;;;;;;;;;4151700;34;20536;-52
2021/03/05 02:37:59;;;;;;;7.35;5.90;;;;;;;;;;4129042;34;20446;-50
2021/03/05 02:40:33;;;;;;;7.40;5.80;;;;;;;;;;4139971;34;20198;-48
2021/03/05 02:43:02;;;;;;;7.15;6.28;;;;;;;;;;4129400;34;20198;-52
2021/03/05 02:45:35;;;;;;;6.57;5.37;;;;;;;;;;4163811;34;20613;-51
2021/03/05 02:48:04;;;;;;;10.25;6.43;;;;;;;;;;4151737;34;20190;-51
2021/03/05 02:50:31;;;;;;;9.98;6.45;;;;;;;;;;4140036;34;20122;-52
2021/03/05 02:53:00;;;;;;;8.57;6.78;;;;;;;;;;4140148;34;20115;-52
2021/03/05 02:55:26;;;;;;;9.48;7.12;;;;;;;;;;4128787;34;20589;-51
2021/03/05 02:57:57;;;;;;;10.13;6.60;;;;;;;;;;4128977;34;20095;-53
2021/03/05 03:00:24;;;;;;;9.77;7.03;;;;;;;;;;4140340;34;20205;-50
2021/03/05 03:02:54;;;;;;;7.30;5.82;;;;;;;;;;4129161;34;20106;-55
2021/03/05 03:05:21;;;;;;;11.23;6.40;;;;;;;;;;4128383;34;20114;-53
2021/03/05 03:07:48;;;;;;;11.50;6.95;;;;;;;;;;4140049;34;20517;-52
2021/03/05 03:10:15;;;;;;;8.32;5.95;;;;;;;;;;4150904;34;20165;-57
2021/03/05 03:12:41;;;;;;;10.35;6.55;;;;;;;;;;4140001;34;20102;-56
2021/03/05 03:15:09;;;;;;;10.63;7.50;;;;;;;;;;4139583;34;20154;-57
2021/03/05 03:17:37;;;;;;;8.20;6.05;;;;;;;;;;4140027;34;20096;-48
2021/03/05 03:20:05;;;;;;;7.50;6.20;;;;;;;;;;4139602;34;20126;-55
2021/03/05 03:22:32;;;;;;;9.35;6.57;;;;;;;;;;4128570;34;20522;-50
2021/03/05 03:24:59;;;;;;;7.95;6.05;;;;;;;;;;4128173;34;20114;-53
2021/03/05 03:27:26;;;;;;;8.50;6.28;;;;;;;;;;4139641;34;20464;-51
2021/03/05 03:29:52;;;;;;;7.80;6.35;;;;;;;;;;4128599;34;20131;-55
2021/03/05 03:32:19;;;;;;;11.85;6.18;;;;;;;;;;4139451;34;20198;-51
2021/03/05 03:35:04;;;;;;;7.68;6.47;;;;;;;;;;4130896;34;20103;-53
2021/03/05 03:37:56;;;;;;;9.35;6.28;;;;;;;;;;4122765;34;20103;-56
2021/03/05 03:40:22;;;;;;;9.63;6.55;;;;;;;;;;4128284;34;20470;-52
2021/03/05 03:43:12;;;;;;;8.32;6.53;;;;;;;;;;4117426;34;20222;-50
2021/03/05 03:45:39;;;;;;;10.57;6.90;;;;;;;;;;4141021;34;20151;-51
2021/03/05 03:48:06;;;;;;;8.25;6.78;;;;;;;;;;4151863;34;20522;-50
2021/03/05 03:50:35;;;;;;;11.65;6.80;;;;;;;;;;4130122;34;20538;-51
2021/03/05 03:53:10;;;;;;;9.07;7.68;;;;;;;;;;4130569;34;20107;-49
2021/03/05 03:55:36;;;;;;;11.02;7.47;;;;;;;;;;4153013;34;20170;-47
2021/03/05 03:58:03;;;;;;;8.70;6.82;;;;;;;;;;4130304;34;20122;-52
2021/03/05 04:00:29;;;;;;;9.57;6.60;;;;;;;;;;4141574;34;20129;-55
2021/03/05 04:02:56;;;;;;;7.97;6.70;;;;;;;;;;4165022;34;20122;-49
2021/03/05 04:05:26;;;;;;;8.15;6.68;;;;;;;;;;4130043;34;20158;-49
2021/03/05 04:07:53;;;;;;;7.70;6.50;;;;;;;;;;4130203;34;20107;-50
2021/03/05 04:10:20;;;;;;;9.55;7.10;;;;;;;;;;4141350;34;20202;-51
2021/03/05 04:12:47;;;;;;;7.45;6.65;;;;;;;;;;4130200;34;20095;-55
2021/03/05 04:15:13;;;;;;;9.50;7.75;;;;;;;;;;4129866;34;20094;-52
2021/03/05 04:17:39;;;;;;;9.50;7.12;;;;;;;;;;4130150;34;20192;-48
2021/03/05 04:20:06;;;;;;;8.40;6.85;;;;;;;;;;4141019;34;20098;-48
2021/03/05 04:22:33;;;;;;;9.30;7.30;;;;;;;;;;4130321;34;20131;-49
2021/03/05 04:24:59;;;;;;;8.10;7.30;;;;;;;;;;4152303;34;20467;-47
2021/03/05 04:27:26;;;;;;;9.38;7.32;;;;;;;;;;4140981;34;20095;-55
2021/03/05 04:29:52;;;;;;;8.07;6.68;;;;;;;;;;4164730;34;20125;-46
2021/03/05 04:32:18;;;;;;;11.12;7.50;;;;;;;;;;4129801;34;20105;-52
2021/03/05 04:34:44;;;;;;;14.82;10.07;;;;;;;;;;4152222;34;20111;-47
2021/03/05 04:37:09;;;;;;;9.95;7.25;;;;;;;;;;4152171;34;20610;-51
2021/03/05 04:39:35;;;;;;;9.15;7.37;;;;;;;;;;4140875;34;20181;-53
2021/03/05 04:42:01;;;;;;;8.85;7.32;;;;;;;;;;4164976;34;20212;-47
2021/03/05 04:44:27;;;;;;;7.87;6.78;;;;;;;;;;4165067;34;20207;-49
2021/03/05 04:46:53;;;;;;;8.57;7.50;;;;;;;;;;4152386;34;20158;-49
2021/03/05 04:49:19;;;;;;;9.50;7.55;;;;;;;;;;4152185;34;20118;-49
2021/03/05 04:51:45;;;;;;;10.85;7.43;;;;;;;;;;4140914;34;20107;-49
2021/03/05 04:54:11;;;;;;;8.10;7.07;;;;;;;;;;4140531;34;20118;-49
2021/03/05 04:56:37;;;;;;;8.57;7.05;;;;;;;;;;4140983;34;20163;-52
2021/03/05 04:59:03;;;;;;;9.93;7.70;;;;;;;;;;4140262;34;20099;-48
2021/03/05 05:01:29;;;;;;;8.18;7.35;;;;;;;;;;4141036;34;20528;-52
2021/03/05 05:03:55;;;;;;;8.63;7.22;;;;;;;;;;4151883;34;20582;-50
2021/03/05 05:06:21;;;;;;;9.18;7.32;;;;;;;;;;4164483;34;20126;-51
2021/03/05 05:08:47;;;;;;;8.77;7.28;;;;;;;;;;4164566;34;20130;-54
2021/03/05 05:11:13;;;;;;;8.32;7.45;;;;;;;;;;4152022;34;20141;-50
2021/03/05 05:13:39;;;;;;;12.30;8.25;;;;;;;;;;4164549;34;20126;-53
2021/03/05 05:16:05;;;;;;;8.80;7.75;;;;;;;;;;4164509;34;20136;-52
2021/03/05 05:18:31;;;;;;;9.45;7.80;;;;;;;;;;4152147;34;20153;-50
2021/03/05 05:20:57;;;;;;;10.02;7.93;;;;;;;;;;4164292;34;20227;-48
2021/03/05 05:23:23;;;;;;;10.95;8.35;;;;;;;;;;4164430;34;20262;-55
2021/03/05 05:25:49;;;;;;;10.27;8.90;;;;;;;;;;4151858;34;20130;-55
2021/03/05 05:28:15;;;;;;;8.80;7.90;;;;;;;;;;4140670;34;20188;-50
2021/03/05 05:30:41;;;;;;;5.90;5.05;;;;;;;;;;4164270;34;20199;-51
2021/03/05 05:33:07;;;;;;;4.60;4.10;;;;;;;;;;4164406;34;20114;-54
2021/03/05 05:35:33;;;;;;;4.12;3.72;;;;;;;;;;4140628;34;20122;-53
2021/03/05 05:37:59;;;;;;;3.12;2.80;;;;;;;;;;4151694;34;20118;-50
2021/03/05 05:40:26;;;;;;;2.90;2.53;;;;;;;;;;4163960;34;20551;-52
2021/03/05 05:42:52;;;;;;;3.62;2.70;;;;;;;;;;4151421;34;20118;-50
2021/03/05 05:45:18;;;;;;;3.15;2.50;;;;;;;;;;4140418;34;20202;-51
2021/03/05 05:47:44;;;;;;;3.87;2.30;;;;;;;;;;4164312;34;20171;-51
2021/03/05 05:50:10;;;;;;;2.53;2.33;;;;;;;;;;4140296;34;20105;-47
2021/03/05 05:52:36;;;;;;;3.03;2.37;;;;;;;;;;4151772;34;20208;-50
2021/03/05 05:55:04;;;;;;;1.87;1.77;;;;;;;;;;4164210;34;20198;-52
2021/03/05 05:57:30;;;;;;;2.25;1.77;;;;;;;;;;4140290;34;20153;-52
2021/03/05 05:59:59;;;;;;;3.22;1.83;;;;;;;;;;4151246;34;20647;-49
2021/03/05 06:02:26;;;;;;;2.22;2.03;;;;;;;;;;4140113;34;20110;-53
2021/03/05 06:04:55;;;;;;;2.58;2.37;;;;;;;;;;4140467;34;20139;-53
2021/03/05 06:07:22;;;;;;;3.60;3.03;;;;;;;;;;4151420;34;20110;-46
2021/03/05 06:09:52;;;;;;;3.53;2.80;;;;;;;;;;4150981;34;20205;-50
2021/03/05 06:12:19;;;;;;;2.92;2.62;;;;;;;;;;4162973;34;20095;-48
2021/03/05 06:14:45;;;;;;;3.62;2.62;;;;;;;;;;4129055;34;20130;-51
2021/03/05 06:17:12;;;;;;;2.20;2.00;;;;;;;;;;4151616;34;20500;-52
2021/03/05 06:19:38;;;;;;;4.00;2.15;;;;;;;;;;4151387;34;20518;-51
2021/03/05 06:22:24;;;;;;;1.90;1.70;;;;;;;;;;4163891;34;20095;-51
2021/03/05 06:24:50;;;;;;;2.17;1.95;;;;;;;;;;4151236;34;20495;-53
2021/03/05 06:27:17;;;;;;;2.10;1.90;;;;;;;;;;4164070;34;20461;-54
2021/03/05 06:29:44;;;;;;;2.22;2.03;;;;;;;;;;4163627;34;20106;-51
2021/03/05 06:32:12;;;;;;;2.60;2.08;;;;;;;;;;4151646;34;20118;-53
2021/03/05 06:34:48;;;;;;;1.42;1.33;;;;;;;;;;4163923;34;20537;-53
2021/03/05 06:37:18;;;;;;;1.95;1.50;;;;;;;;;;4163951;34;20215;-51
2021/03/05 06:39:44;;;;;;;2.47;1.83;;;;;;;;;;4150968;34;20279;-48
2021/03/05 06:42:13;;;;;;;2.15;1.80;;;;;;;;;;4150887;34;20121;-48
2021/03/05 06:44:45;;;;;;;3.08;2.25;;;;;;;;;;4163692;34;20482;-52
2021/03/05 06:47:18;;;;;;;2.90;2.30;;;;;;;;;;4151093;34;20122;-52
2021/03/05 06:49:45;;;;;;;2.55;2.35;;;;;;;;;;4163889;34;20182;-52
2021/03/05 06:52:12;;;;;;;3.55;2.42;;;;;;;;;;4151065;34;20547;-53
2021/03/05 06:54:39;;;;;;;2.40;2.15;;;;;;;;;;4150838;34;20561;-51
2021/03/05 06:57:05;;;;;;;1.60;1.50;;;;;;;;;;4139812;34;20123;-50
2021/03/05 06:59:49;;;;;;;1.67;1.58;;;;;;;;;;4163500;34;20119;-51
2021/03/05 07:02:15;;;;;;;2.20;2.00;;;;;;;;;;4150675;34;20099;-53
2021/03/05 07:04:51;;;;;;;1.90;1.80;;;;;;;;;;4150846;34;20602;-49
2021/03/05 07:07:18;;;;;;;3.25;1.87;;;;;;;;;;4128815;34;20143;-51
2021/03/05 07:09:45;;;;;;;1.90;1.80;;;;;;;;;;4163386;34;20125;-51
2021/03/05 07:12:16;;;;;;;2.12;1.85;;;;;;;;;;4150871;34;20090;-49
2021/03/05 07:14:44;;;;;;;3.47;2.92;;;;;;;;;;4150935;34;20121;-47
2021/03/05 07:17:10;;;;;;;4.40;3.10;;;;;;;;;;4150556;34;20110;-53
2021/03/05 07:19:37;;;;;;;5.85;3.65;;;;;;;;;;4139707;34;20133;-46
2021/03/05 07:22:06;;;;;;;5.82;3.20;;;;;;;;;;4163434;34;20122;-49
2021/03/05 07:24:32;;;;;;;3.67;2.20;;;;;;;;;;4165371;34;20512;-47
2021/03/05 07:27:02;;;;;;;3.85;2.40;;;;;;;;;;4165335;34;20122;-50
2021/03/05 07:29:38;;;;;;;3.05;2.30;;;;;;;;;;4165753;34;20521;-48
2021/03/05 07:32:05;;;;;;;2.37;2.03;;;;;;;;;;4165386;34;20326;-52
2021/03/05 07:34:35;;;;;;;2.83;2.20;;;;;;;;;;4165230;34;20133;-49
2021/03/05 07:37:03;;;;;;;2.42;2.22;;;;;;;;;;4152983;34;20110;-52
2021/03/05 07:39:45;;;;;;;2.40;2.20;;;;;;;;;;4141933;34;20581;-51
2021/03/05 07:42:11;;;;;;;2.10;1.90;;;;;;;;;;4120816;34;20415;-48
2021/03/05 07:44:38;;;;;;;2.15;1.80;;;;;;;;;;4141470;34;20111;-50
2021/03/05 07:47:08;;;;;;;2.20;1.60;;;;;;;;;;4152598;34;20095;-50
2021/03/05 07:49:34;;;;;;;2.85;1.80;;;;;;;;;;4153004;34;20227;-47
2021/03/05 07:52:00;;;;;;;1.67;1.58;;;;;;;;;;4152668;34;20111;-52
2021/03/05 07:54:41;;;;;;;1.65;1.55;;;;;;;;;;4152464;34;20677;-46
2021/03/05 07:57:19;;;;;;;2.40;2.05;;;;;;;;;;4165278;34;20132;-49
2021/03/05 07:59:46;;;;;;;2.55;1.75;;;;;;;;;;4165222;34;20122;-52
2021/03/05 08:02:13;;;;;;;2.40;1.92;;;;;;;;;;4165227;34;20528;-48
2021/03/05 08:04:53;;;;;;;3.15;1.77;;;;;;;;;;4152373;34;20602;-50
2021/03/05 08:07:20;;;;;;;3.20;1.70;;;;;;;;;;4165076;34;20107;-49
2021/03/05 08:09:46;;;;;;;3.20;2.62;;;;;;;;;;4165203;34;20291;-48
2021/03/05 08:12:45;;;;;;;2.10;1.90;;;;;;;;;;4165359;34;20138;-47
2021/03/05 08:15:13;;;;;;;2.85;2.00;;;;;;;;;;4164881;34;20182;-49
2021/03/05 08:17:47;;;;;;;1.30;1.20;;;;;;;;;;4165603;34;20201;-52
2021/03/05 08:20:17;;;;;;;1.40;1.30;;;;;;;;;;4130858;34;20114;-45
2021/03/05 08:22:58;;;;;;;1.95;1.33;;;;;;;;;;4152205;34;20119;-54
2021/03/05 08:25:27;;;;;;;1.15;1.10;;;;;;;;;;4164641;34;20142;-54
2021/03/05 08:27:53;;;;;;;1.27;1.17;;;;;;;;;;4152076;34;20111;-52
2021/03/05 08:30:22;;;;;;;1.45;1.35;;;;;;;;;;4141075;34;20209;-53
2021/03/05 08:32:55;;;;;;;1.35;1.23;;;;;;;;;;4151987;34;20103;-54
2021/03/05 08:35:34;;;;;;;1.37;1.27;;;;;;;;;;4151380;34;20109;-52
2021/03/05 08:38:08;;;;;;;1.65;1.50;;;;;;;;;;4152131;34;20101;-49
2021/03/05 08:40:56;;;;;;;1.67;1.30;;;;;;;;;;4152151;34;20204;-51
2021/03/05 08:43:23;;;;;;;1.92;1.50;;;;;;;;;;4152240;34;20122;-48
2021/03/05 08:46:03;;;;;;;1.40;1.30;;;;;;;;;;4164611;34;20114;-49
2021/03/05 08:48:30;;;;;;;1.50;1.35;;;;;;;;;;4164716;34;20166;-47
2021/03/05 08:51:06;;;;;;;2.05;1.33;;;;;;;;;;4164641;34;20529;-52
2021/03/05 08:53:39;;;;;;;1.12;1.12;;;;;;;;;;4164753;34;20210;-46
2021/03/05 08:56:04;;;;;;;1.50;1.40;;;;;;;;;;4164519;34;20139;-52
2021/03/05 08:58:31;;;;;;;3.60;1.70;;;;;;;;;;4164667;34;20210;-49
2021/03/05 09:00:57;;;;;;;2.45;1.58;;;;;;;;;;4140828;34;20129;-48
2021/03/05 09:03:23;;;;;;;2.17;1.40;;;;;;;;;;4164670;34;20119;-47
2021/03/05 09:05:50;;;;;;;1.30;1.20;;;;;;;;;;4140569;34;20139;-47
2021/03/05 09:08:20;;;;;;;1.37;1.20;;;;;;;;;;4164734;34;20514;-49
2021/03/05 09:10:56;;;;;;;1.92;1.40;;;;;;;;;;4140963;34;20205;-47
2021/03/05 09:13:32;;;;;;;1.55;1.40;;;;;;;;;;4151853;34;20141;-50
2021/03/05 09:16:00;;;;;;;1.10;1.10;;;;;;;;;;4139712;34;20101;-53
2021/03/05 09:18:27;;;;;;;2.37;1.42;;;;;;;;;;4151058;34;20143;-51
2021/03/05 09:21:03;;;;;;;1.48;1.33;;;;;;;;;;4151707;34;20119;-46
2021/03/05 09:23:31;;;;;;;;;;;;;;;;;;4152203;34;20110;-48
2021/03/05 09:25:59;;;;;;;1.52;1.42;;;;;;;;;;4164423;34;19999;-53
2021/03/05 09:28:26;;;;;;;1.58;1.20;;;;;;;;;;4154148;34;20131;-54
2021/03/05 09:30:55;;;;;;;1.40;1.30;;;;;;;;;;4156683;34;20085;-54
2021/03/05 09:33:34;;;;;;;1.33;1.20;;;;;;;;;;4164252;34;20098;-50
2021/03/05 09:36:11;;;;;;;0.95;0.90;;;;;;;;;;4176756;34;20527;-48
2021/03/05 09:38:38;;;;;;;1.52;1.40;;;;;;;;;;4153509;34;20302;-48
2021/03/05 09:41:25;;;;;;;1.60;1.33;;;;;;;;;;4164649;34;20119;-47
2021/03/05 09:44:00;;;;;;;1.30;1.20;;;;;;;;;;4153975;34;20124;-54
2021/03/05 09:46:27;;;;;;;1.37;1.27;;;;;;;;;;4147667;34;20115;-50
2021/03/05 09:48:54;;;;;;;1.73;1.40;;;;;;;;;;4177530;34;20185;-46
2021/03/05 09:51:20;;;;;;;2.10;1.42;;;;;;;;;;4158578;34;20213;-51
2021/03/05 09:53:55;;;;;;;1.35;1.10;;;;;;;;;;4156218;34;20102;-47
2021/03/05 09:56:24;;;;;;;1.60;1.40;;;;;;;;;;4167349;34;20510;-49
2021/03/05 09:58:56;;;;;;;1.40;1.30;;;;;;;;;;4153431;34;20496;-52
2021/03/05 10:01:22;;;;;;;1.95;1.50;;;;;;;;;;4153500;34;20520;-48
2021/03/05 10:03:55;;;;;;;1.85;1.75;;;;;;;;;;4162240;34;20142;-48
2021/03/05 10:06:21;;;;;;;1.98;1.60;;;;;;;;;;4177233;34;20117;-46
2021/03/05 10:08:59;;;;;;;1.50;1.25;;;;;;;;;;4177541;34;20133;-53
2021/03/05 10:11:36;;;;;;;1.08;1.08;;;;;;;;;;4142383;34;20114;-50
2021/03/05 10:14:04;;;;;;;1.52;1.35;;;;;;;;;;4172364;34;20103;-50
2021/03/05 10:16:32;;;;;;;1.55;1.40;;;;;;;;;;4150798;34;20122;-51
2021/03/05 10:19:05;;;;;;;1.30;1.20;;;;;;;;;;4164894;34;20210;-52
2021/03/05 10:21:31;;;;;;;1.98;1.50;;;;;;;;;;4174467;34;20099;-50
2021/03/05 10:24:01;;;;;;;1.60;1.50;;;;;;;;;;4169279;34;20131;-49
2021/03/05 10:26:27;;;;;;;1.30;1.20;;;;;;;;;;4153562;34;20109;-47
2021/03/05 10:28:59;;;;;;;1.30;1.20;;;;;;;;;;4150317;34;20095;-49
2021/03/05 10:31:46;;;;;;;3.25;1.48;;;;;;;;;;4174652;34;20117;-48
2021/03/05 10:34:37;;;;;;;1.35;1.25;;;;;;;;;;4177713;34;20501;-48
2021/03/05 10:37:03;;;;;;;1.67;1.45;;;;;;;;;;4175942;34;20125;-49
2021/03/05 10:39:33;;;;;;;1.98;1.67;;;;;;;;;;4177720;34;20209;-50
2021/03/05 10:42:05;;;;;;;1.45;1.35;;;;;;;;;;4177674;34;20105;-46
2021/03/05 10:44:33;;;;;;;2.15;1.60;;;;;;;;;;4177440;34;20218;-53
2021/03/05 10:47:03;;;;;;;1.30;1.20;;;;;;;;;;4164347;34;20132;-47
2021/03/05 10:49:30;;;;;;;1.50;1.40;;;;;;;;;;4177241;34;20111;-46
2021/03/05 10:51:56;;;;;;;1.40;1.30;;;;;;;;;;4177438;34;20099;-52
2021/03/05 10:54:22;;;;;;;2.15;1.50;;;;;;;;;;4164696;34;20186;-48
2021/03/05 10:56:48;;;;;;;1.50;1.40;;;;;;;;;;4152603;34;20114;-48
2021/03/05 10:59:17;;;;;;;1.55;1.45;;;;;;;;;;4164071;34;20544;-52
2021/03/05 11:01:44;;;;;;;1.50;1.40;;;;;;;;;;4170033;34;20548;-46
2021/03/05 11:04:10;;;;;;;1.12;1.02;;;;;;;;;;4151171;34;20103;-49
2021/03/05 11:06:36;;;;;;;1.37;1.27;;;;;;;;;;4163600;34;20098;-47
2021/03/05 11:09:04;;;;;;;1.67;1.50;;;;;;;;;;4176806;34;20104;-46
2021/03/05 11:11:30;;;;;;;1.48;1.37;;;;;;;;;;4163965;34;20121;-50
2021/03/05 11:13:56;;;;;;;1.50;1.40;;;;;;;;;;4164148;34;20134;-47
2021/03/05 11:16:22;;;;;;;1.60;1.50;;;;;;;;;;4164017;34;20210;-47
2021/03/05 11:18:48;;;;;;;1.50;1.40;;;;;;;;;;4177195;34;20133;-49
2021/03/05 11:21:15;;;;;;;2.37;1.60;;;;;;;;;;4176306;34;20103;-52
2021/03/05 11:23:45;;;;;;;1.48;1.20;;;;;;;;;;4164214;34;20203;-54
2021/03/05 11:26:11;;;;;;;1.35;1.25;;;;;;;;;;4164476;34;20210;-48
2021/03/05 11:28:38;;;;;;;1.40;1.30;;;;;;;;;;4176870;34;20107;-55
2021/03/05 11:31:04;;;;;;;1.35;1.25;;;;;;;;;;4176866;34;20467;-49
2021/03/05 11:33:30;;;;;;;2.55;1.62;;;;;;;;;;4176586;34;20679;-55
2021/03/05 11:35:56;;;;;;;1.75;1.65;;;;;;;;;;4176553;34;20211;-54
2021/03/05 11:38:22;;;;;;;1.30;1.20;;;;;;;;;;4164088;34;20097;-52
2021/03/05 11:40:48;;;;;;;1.30;1.20;;;;;;;;;;4163650;34;20103;-51
2021/03/05 11:43:14;;;;;;;1.30;1.20;;;;;;;;;;4176963;34;20111;-53
2021/03/05 11:45:40;;;;;;;1.33;1.23;;;;;;;;;;4170806;34;20197;-52
2021/03/05 11:48:06;;;;;;;2.17;1.52;;;;;;;;;;4150466;34;20531;-54
2021/03/05 11:50:32;;;;;;;1.52;1.40;;;;;;;;;;4169921;34;20118;-51
2021/03/05 11:52:58;;;;;;;1.02;1.02;;;;;;;;;;4176755;34;20127;-54
2021/03/05 11:55:24;;;;;;;1.20;1.10;;;;;;;;;;4141315;34;20218;-50
2021/03/05 11:57:50;;;;;;;1.92;1.35;;;;;;;;;;4163646;34;20194;-54
2021/03/05 12:00:17;;;;;;;1.17;1.10;;;;;;;;;;4152151;34;20460;-52
2021/03/05 12:02:43;;;;;;;2.45;1.20;;;;;;;;;;4176704;34;20458;-54
2021/03/05 12:05:09;;;;;;;1.92;1.40;;;;;;;;;;4175951;34;20149;-54
2021/03/05 12:07:35;;;;;;;1.33;1.23;;;;;;;;;;4163809;34;20121;-48
2021/03/05 12:10:02;;;;;;;2.05;1.17;;;;;;;;;;4177894;34;20221;-53
2021/03/05 12:12:28;;;;;;;1.40;1.30;;;;;;;;;;4178642;34;20122;-57
2021/03/05 12:14:54;;;;;;;2.65;1.25;;;;;;;;;;4178177;34;20184;-50
2021/03/05 12:17:20;;;;;;;1.30;1.20;;;;;;;;;;4178664;34;20149;-52
2021/03/05 12:19:46;;;;;;;1.55;1.45;;;;;;;;;;4178305;34;20550;-52
2021/03/05 12:22:12;;;;;;;1.75;1.15;;;;;;;;;;4178316;34;20114;-53
2021/03/05 12:24:38;;;;;;;1.75;1.20;;;;;;;;;;4165499;34;20128;-54
2021/03/05 12:27:05;;;;;;;1.90;1.40;;;;;;;;;;4166051;34;20115;-49
2021/03/05 12:29:31;;;;;;;1.35;1.25;;;;;;;;;;4178316;34;20113;-49
2021/03/05 12:31:57;;;;;;;1.65;1.40;;;;;;;;;;4178466;34;20138;-50
2021/03/05 12:34:23;;;;;;;1.30;1.20;;;;;;;;;;4153783;34;20522;-50
2021/03/05 12:36:49;;;;;;;1.48;1.12;;;;;;;;;;4178595;34;20743;-50
2021/03/05 12:39:16;;;;;;;1.25;1.15;;;;;;;;;;4165502;34;20122;-50
2021/03/05 12:41:42;;;;;;;1.12;1.02;;;;;;;;;;4165871;34;20149;-51
2021/03/05 12:44:08;;;;;;;2.33;1.62;;;;;;;;;;4178425;34;20126;-53
2021/03/05 12:46:35;;;;;;;1.48;1.37;;;;;;;;;;4177961;34;20470;-49
2021/03/05 12:49:01;;;;;;;1.42;1.33;;;;;;;;;;4178410;34;20114;-51
2021/03/05 12:51:27;;;;;;;1.37;1.27;;;;;;;;;;4178105;34;20110;-51
2021/03/05 12:54:03;;;;;;;1.80;1.70;;;;;;;;;;4165377;34;20174;-51
2021/03/05 12:56:31;;;;;;;1.58;1.48;;;;;;;;;;4143299;34;20470;-53
2021/03/05 12:58:57;;;;;;;1.70;1.42;;;;;;;;;;4177581;34;20271;-57
2021/03/05 13:01:23;;;;;;;1.50;1.40;;;;;;;;;;4165019;34;20103;-55
2021/03/05 13:03:49;;;;;;;1.73;1.62;;;;;;;;;;4175392;34;20388;-55
2021/03/05 13:06:15;;;;;;;2.20;1.55;;;;;;;;;;4162932;34;20146;-53
2021/03/05 13:08:41;;;;;;;1.52;1.42;;;;;;;;;;4162113;34;20103;-58
2021/03/05 13:11:09;;;;;;;3.10;1.85;;;;;;;;;;4152040;34;20098;-54
2021/03/05 13:13:35;;;;;;;2.70;2.10;;;;;;;;;;4140955;34;20764;-58
2021/03/05 13:16:02;;;;;;;2.62;2.10;;;;;;;;;;4175814;34;20126;-57
2021/03/05 13:18:28;;;;;;;2.47;2.20;;;;;;;;;;4163181;34;20565;-51
2021/03/05 13:20:54;;;;;;;2.53;2.00;;;;;;;;;;4163245;34;20566;-48
2021/03/05 13:23:20;;;;;;;2.53;2.17;;;;;;;;;;4178332;34;20114;-48
2021/03/05 13:25:47;;;;;;;3.00;2.30;;;;;;;;;;4142929;34;20126;-55
2021/03/05 13:28:14;;;;;;;2.72;2.00;;;;;;;;;;4165565;34;20542;-55
2021/03/05 13:30:40;;;;;;;2.33;2.10;;;;;;;;;;4178051;34;20125;-51
2021/03/05 13:33:06;;;;;;;6.05;2.72;;;;;;;;;;4165599;34;20086;-52
2021/03/05 13:35:32;;;;;;;3.25;2.60;;;;;;;;;;4165042;34;20091;-52
2021/03/05 13:37:58;;;;;;;4.68;2.78;;;;;;;;;;4165295;34;20530;-56
2021/03/05 13:40:25;;;;;;;3.45;2.75;;;;;;;;;;4142663;34;20098;-55
2021/03/05 13:42:51;;;;;;;2.70;2.50;;;;;;;;;;4178020;34;20106;-54
2021/03/05 13:45:17;;;;;;;2.95;2.60;;;;;;;;;;4165176;34;20194;-48
2021/03/05 13:47:43;;;;;;;3.65;3.35;;;;;;;;;;4178060;34;20115;-53
2021/03/05 13:50:09;;;;;;;5.15;3.12;;;;;;;;;;4177930;34;20122;-51
2021/03/05 13:52:35;;;;;;;4.15;3.33;;;;;;;;;;4165145;34;20193;-50
2021/03/05 13:55:02;;;;;;;3.55;2.70;;;;;;;;;;4177780;34;20121;-57
2021/03/05 13:57:28;;;;;;;3.85;2.90;;;;;;;;;;4165114;34;20095;-46
2021/03/05 13:59:54;;;;;;;3.78;3.20;;;;;;;;;;4165012;34;20233;-52
2021/03/05 14:02:20;;;;;;;3.22;2.60;;;;;;;;;;4177749;34;20203;-49
2021/03/05 14:04:46;;;;;;;3.78;2.90;;;;;;;;;;4164765;34;20548;-47
2021/03/05 14:07:14;;;;;;;4.70;2.40;;;;;;;;;;4177524;34;20589;-50
2021/03/05 14:09:46;;;;;;;4.90;4.28;;;;;;;;;;4142029;34;20605;-52
2021/03/05 14:12:12;;;;;;;6.07;4.43;;;;;;;;;;4164690;34;20173;-50
2021/03/05 14:14:38;;;;;;;5.47;4.00;;;;;;;;;;4177265;34;20150;-50
2021/03/05 14:17:04;;;;;;;5.05;4.55;;;;;;;;;;4177776;34;20115;-52
2021/03/05 14:19:30;;;;;;;5.03;3.92;;;;;;;;;;4153546;34;20137;-56
2021/03/05 14:21:56;;;;;;;6.15;4.60;;;;;;;;;;4177640;34;20110;-54
2021/03/05 14:24:22;;;;;;;6.62;4.43;;;;;;;;;;4153379;34;20134;-49
2021/03/05 14:26:48;;;;;;;6.78;4.68;;;;;;;;;;4164529;34;20113;-48
2021/03/05 14:29:17;;;;;;;6.75;5.50;;;;;;;;;;4164632;34;20589;-49
2021/03/05 14:31:43;;;;;;;5.07;3.92;;;;;;;;;;4152535;34;20094;-52
2021/03/05 14:34:10;;;;;;;8.98;6.32;;;;;;;;;;4164297;34;20155;-49
2021/03/05 14:36:55;;;;;;;7.22;4.80;;;;;;;;;;4177290;34;20186;-46
2021/03/05 14:39:56;;;;;;;5.70;4.85;;;;;;;;;;4173388;34;20520;-48
2021/03/05 14:42:23;;;;;;;4.80;4.10;;;;;;;;;;4164503;34;20094;-50
2021/03/05 14:44:49;;;;;;;5.47;4.37;;;;;;;;;;4164359;34;20101;-50
2021/03/05 14:47:15;;;;;;;7.93;6.10;;;;;;;;;;4164432;34;20740;-49
2021/03/05 14:49:41;;;;;;;7.53;5.53;;;;;;;;;;4164691;34;20212;-51
2021/03/05 14:52:07;;;;;;;6.57;5.43;;;;;;;;;;4177117;34;20175;-52
2021/03/05 14:54:33;;;;;;;6.00;5.03;;;;;;;;;;4164341;34;20087;-50
2021/03/05 14:56:59;;;;;;;6.10;5.22;;;;;;;;;;4164287;34;20098;-51